Time;durP1;ratioP1;P1;durP2;ratioP2;P2;SDS_P1;SDS_P2;PMS_P1;PMS_P2;Temp;Humidity;BMP_temperature;BMP_pressure;BME280_temperature;BME280_humidity;BME280_pressure;Samples;Min_cycle;Max_cycle;Signal;HPM_P1;HPM_P2
2021/10/27 00:00:24;;;;;;;54.95;27.83;;;5.50;99.90;;;;;;6304168;22;20058;-87
2021/10/27 00:03:11;;;;;;;49.25;26.48;;;5.60;99.90;;;;;;6284335;22;20026;-86
2021/10/27 00:06:02;;;;;;;44.17;25.58;;;5.60;99.90;;;;;;6263621;22;20023;-87
2021/10/27 00:08:49;;;;;;;48.05;26.17;;;5.50;99.90;;;;;;6305623;22;20073;-87
2021/10/27 00:11:39;;;;;;;44.72;26.10;;;5.30;99.90;;;;;;6263769;22;20042;-87
2021/10/27 00:14:30;;;;;;;44.45;25.27;;;5.30;99.90;;;;;;6307263;22;20030;-87
2021/10/27 00:17:20;;;;;;;47.22;26.10;;;5.20;99.90;;;;;;6284414;22;20380;-89
2021/10/27 00:20:14;;;;;;;52.28;29.55;;;5.20;99.90;;;;;;6283616;22;20042;-87
2021/10/27 00:23:02;;;;;;;52.47;28.25;;;5.30;99.90;;;;;;6284386;22;20027;-87
2021/10/27 00:25:51;;;;;;;57.20;30.00;;;5.30;99.90;;;;;;6307550;22;20031;-87
2021/10/27 00:28:41;;;;;;;60.78;32.95;;;5.30;99.90;;;;;;6285206;22;20103;-86
2021/10/27 00:31:29;;;;;;;55.92;31.08;;;5.50;99.90;;;;;;6284300;22;20027;-86
2021/10/27 00:34:16;;;;;;;62.63;32.42;;;5.60;99.90;;;;;;6286786;22;20120;-87
2021/10/27 00:37:04;;;;;;;58.42;32.70;;;5.70;99.90;;;;;;6284512;22;20042;-87
2021/10/27 00:39:53;;;;;;;65.70;34.10;;;5.60;99.90;;;;;;6287946;22;20038;-87
2021/10/27 00:42:41;;;;;;;61.53;34.55;;;5.60;99.90;;;;;;6320359;22;20049;-87
2021/10/27 00:45:28;;;;;;;68.15;35.80;;;5.70;99.90;;;;;;6279342;22;20023;-86
2021/10/27 00:48:15;;;;;;;73.07;36.08;;;5.80;99.90;;;;;;6270012;22;20026;-85
2021/10/27 00:51:02;;;;;;;66.38;36.92;;;5.80;99.90;;;;;;6283742;22;20031;-84
2021/10/27 00:53:52;;;;;;;56.38;32.40;;;5.80;99.90;;;;;;6305793;22;20050;-85
2021/10/27 00:56:42;;;;;;;51.45;29.10;;;5.70;99.90;;;;;;6281915;22;20023;-86
2021/10/27 00:59:30;;;;;;;59.33;31.63;;;5.60;99.90;;;;;;6281983;22;20442;-86
2021/10/27 01:02:20;;;;;;;55.92;30.13;;;5.50;99.90;;;;;;6283260;22;20023;-86
2021/10/27 01:05:09;;;;;;;58.92;30.60;;;5.30;99.90;;;;;;6305100;22;20156;-87
2021/10/27 01:07:56;;;;;;;52.60;28.52;;;5.20;99.90;;;;;;6302266;22;20425;-87
2021/10/27 01:10:44;;;;;;;60.17;32.50;;;5.20;99.90;;;;;;6279609;22;20389;-86
2021/10/27 01:13:31;;;;;;;64.10;32.92;;;5.20;99.90;;;;;;6280908;22;20024;-86
2021/10/27 01:16:21;;;;;;;53.53;29.42;;;5.30;99.90;;;;;;6303796;22;20018;-86
2021/10/27 01:19:10;;;;;;;44.65;25.83;;;5.20;99.90;;;;;;6280633;22;20042;-86
2021/10/27 01:22:01;;;;;;;42.88;24.77;;;5.10;99.90;;;;;;6263883;22;20023;-86
2021/10/27 01:24:49;;;;;;;48.10;25.25;;;4.90;99.90;;;;;;6279468;22;20062;-86
2021/10/27 01:27:46;;;;;;;51.20;27.23;;;4.80;99.90;;;;;;6280590;22;20028;-86
2021/10/27 01:30:34;;;;;;;57.58;31.92;;;4.70;99.90;;;;;;6303395;22;20102;-85
2021/10/27 01:33:23;;;;;;;53.90;30.25;;;4.70;99.90;;;;;;6303930;22;20030;-87
2021/10/27 01:36:18;;;;;;;53.90;28.88;;;4.70;99.90;;;;;;6262421;22;20102;-86
2021/10/27 01:39:09;;;;;;;43.83;26.95;;;4.70;99.90;;;;;;6305415;22;20329;-85
2021/10/27 01:41:59;;;;;;;48.40;28.80;;;4.60;99.90;;;;;;6304651;22;20031;-86
2021/10/27 01:44:46;;;;;;;54.13;29.80;;;4.50;99.90;;;;;;6240491;22;20027;-85
2021/10/27 01:47:39;;;;;;;53.40;31.02;;;4.40;99.90;;;;;;6259991;22;20026;-85
2021/10/27 01:50:27;;;;;;;62.85;33.17;;;4.30;99.90;;;;;;6303430;22;20095;-85
2021/10/27 01:53:14;;;;;;;62.13;33.50;;;4.30;99.90;;;;;;6302076;22;20422;-87
2021/10/27 01:56:02;;;;;;;57.85;33.13;;;4.30;99.90;;;;;;6259565;22;20043;-87
2021/10/27 01:58:50;;;;;;;75.60;36.53;;;4.40;99.90;;;;;;6281948;22;20027;-86
2021/10/27 02:01:38;;;;;;;73.63;36.30;;;4.40;99.90;;;;;;6302945;22;20656;-86
2021/10/27 02:04:26;;;;;;;74.75;37.72;;;4.40;99.90;;;;;;6279876;22;20038;-86
2021/10/27 02:07:13;;;;;;;82.75;39.03;;;4.40;99.90;;;;;;6303940;22;20038;-86
2021/10/27 02:10:05;;;;;;;71.03;36.25;;;4.50;99.90;;;;;;6304099;22;20487;-86
2021/10/27 02:12:53;;;;;;;92.35;42.92;;;4.50;99.90;;;;;;6281521;22;20023;-85
2021/10/27 02:15:42;;;;;;;92.80;42.25;;;4.70;99.90;;;;;;6279653;22;20023;-86
2021/10/27 02:18:31;;;;;;;99.88;43.40;;;4.70;99.90;;;;;;6260985;22;20034;-86
2021/10/27 02:21:21;;;;;;;73.05;40.20;;;4.80;99.90;;;;;;6280554;22;20038;-86
2021/10/27 02:24:08;;;;;;;104.18;45.83;;;4.90;99.90;;;;;;6301519;22;20050;-86
2021/10/27 02:27:00;;;;;;;97.80;46.22;;;5.00;99.90;;;;;;6281808;22;20023;-86
2021/10/27 02:29:47;;;;;;;103.30;48.35;;;5.10;99.90;;;;;;6303593;22;20023;-85
2021/10/27 02:32:34;;;;;;;93.22;45.47;;;5.10;99.90;;;;;;6259186;22;20236;-86
2021/10/27 02:35:22;;;;;;;90.80;44.70;;;5.10;99.90;;;;;;6279710;22;20027;-86
2021/10/27 02:38:09;;;;;;;81.40;41.38;;;5.00;99.90;;;;;;6262395;22;20028;-85
2021/10/27 02:40:57;;;;;;;86.13;39.15;;;4.80;99.90;;;;;;6308052;22;20407;-86
2021/10/27 02:43:46;;;;;;;74.00;36.47;;;4.70;99.90;;;;;;6308917;22;20033;-86
2021/10/27 02:46:33;;;;;;;68.88;35.67;;;4.60;99.90;;;;;;6291404;22;20054;-86
2021/10/27 02:49:23;;;;;;;64.60;35.17;;;4.40;99.90;;;;;;6307855;22;20124;-86
2021/10/27 02:52:10;;;;;;;76.38;39.20;;;4.30;99.90;;;;;;6304873;22;20031;-85
2021/10/27 02:54:57;;;;;;;75.75;38.75;;;4.40;99.90;;;;;;6305124;22;20019;-86
2021/10/27 02:57:45;;;;;;;68.80;35.55;;;4.40;99.90;;;;;;6260437;22;20301;-86
2021/10/27 03:00:35;;;;;;;69.00;34.88;;;4.30;99.90;;;;;;6302826;22;20117;-86
2021/10/27 03:03:22;;;;;;;62.50;33.83;;;4.20;99.90;;;;;;6284282;22;20035;-86
2021/10/27 03:06:09;;;;;;;59.33;33.17;;;4.20;99.90;;;;;;6283069;22;20089;-85
2021/10/27 03:08:59;;;;;;;53.45;31.92;;;4.10;99.90;;;;;;6281823;22;20414;-86
2021/10/27 03:11:46;;;;;;;56.42;31.92;;;4.00;99.90;;;;;;6306401;22;20098;-86
2021/10/27 03:14:36;;;;;;;58.95;30.92;;;4.00;99.90;;;;;;6285126;22;20023;-86
2021/10/27 03:17:23;;;;;;;47.25;28.00;;;3.80;99.90;;;;;;6282768;22;20124;-85
2021/10/27 03:20:10;;;;;;;46.15;27.75;;;3.60;99.90;;;;;;6280521;22;20027;-85
2021/10/27 03:23:00;;;;;;;46.45;27.55;;;3.50;99.90;;;;;;6261564;22;20055;-85
2021/10/27 03:25:48;;;;;;;41.55;25.67;;;3.40;99.90;;;;;;6283290;22;20330;-85
2021/10/27 03:28:35;;;;;;;44.15;26.85;;;3.30;99.90;;;;;;6305268;22;20734;-85
2021/10/27 03:31:25;;;;;;;44.88;26.67;;;3.30;99.90;;;;;;6302898;22;20121;-85
2021/10/27 03:34:14;;;;;;;53.20;29.40;;;3.30;99.90;;;;;;6283741;22;20023;-86
2021/10/27 03:37:03;;;;;;;48.80;28.30;;;3.30;99.90;;;;;;6260372;22;20046;-86
2021/10/27 03:39:53;;;;;;;43.05;26.48;;;3.10;99.90;;;;;;6284479;22;20101;-85
2021/10/27 03:42:40;;;;;;;48.10;28.30;;;3.10;99.90;;;;;;6305033;22;20118;-86
2021/10/27 03:45:28;;;;;;;44.60;28.63;;;3.20;99.90;;;;;;6289966;22;20049;-85
2021/10/27 03:48:15;;;;;;;50.28;29.38;;;3.20;99.90;;;;;;6280569;22;20445;-86
2021/10/27 03:51:03;;;;;;;49.42;29.77;;;3.30;99.90;;;;;;6260638;22;20045;-86
2021/10/27 03:53:51;;;;;;;52.05;31.30;;;3.40;99.90;;;;;;6280493;22;20676;-85
2021/10/27 03:56:38;;;;;;;52.22;31.13;;;3.30;99.90;;;;;;6283722;22;20034;-86
2021/10/27 03:59:26;;;;;;;56.35;32.40;;;3.40;99.90;;;;;;6306001;22;20059;-85
2021/10/27 04:02:19;;;;;;;53.03;31.42;;;3.50;99.90;;;;;;6281958;22;20023;-86
2021/10/27 04:05:30;;;;;;;55.58;31.67;;;3.40;99.90;;;;;;6273683;22;20027;-86
2021/10/27 04:08:20;;;;;;;54.60;30.25;;;3.50;99.90;;;;;;6290718;22;20084;-85
2021/10/27 04:11:12;;;;;;;59.60;31.10;;;3.40;99.90;;;;;;6263284;22;20034;-85
2021/10/27 04:14:00;;;;;;;41.75;21.98;;;3.30;99.90;;;;;;6264125;22;20023;-85
2021/10/27 04:16:54;;;;;;;56.70;29.63;;;3.30;99.90;;;;;;6305543;22;20031;-85
2021/10/27 04:19:42;;;;;;;54.95;30.10;;;3.30;99.90;;;;;;6283845;22;20325;-85
2021/10/27 04:22:32;;;;;;;55.72;29.45;;;3.30;99.90;;;;;;6285047;22;20601;-85
2021/10/27 04:25:22;;;;;;;56.17;31.00;;;3.20;99.90;;;;;;6287096;22;20080;-85
2021/10/27 04:28:10;;;;;;;60.15;32.35;;;3.20;99.90;;;;;;6308134;22;20023;-84
2021/10/27 04:31:02;;;;;;;68.05;35.00;;;3.30;99.90;;;;;;6287452;22;20027;-85
2021/10/27 04:33:49;;;;;;;57.53;29.92;;;3.20;99.90;;;;;;6308009;22;20019;-84
2021/10/27 04:36:37;;;;;;;58.28;31.85;;;3.10;99.90;;;;;;6310096;22;20092;-84
2021/10/27 04:39:24;;;;;;;58.65;31.77;;;3.10;99.90;;;;;;6284558;22;20039;-83
2021/10/27 04:42:12;;;;;;;59.95;30.80;;;3.00;99.90;;;;;;6284369;22;20031;-83
2021/10/27 04:44:59;;;;;;;58.70;30.67;;;2.90;99.90;;;;;;6305906;22;20124;-84
2021/10/27 04:47:47;;;;;;;59.53;32.40;;;2.90;99.90;;;;;;6304236;22;20337;-82
2021/10/27 04:50:38;;;;;;;51.13;29.63;;;2.90;99.90;;;;;;6306129;22;20089;-83
2021/10/27 04:53:26;;;;;;;64.97;33.05;;;2.90;99.90;;;;;;6305368;22;20023;-83
2021/10/27 04:56:15;;;;;;;71.35;33.97;;;2.90;99.90;;;;;;6284479;22;20122;-82
2021/10/27 04:59:05;;;;;;;61.40;32.25;;;2.90;99.90;;;;;;6283725;22;20035;-84
2021/10/27 05:01:55;;;;;;;58.95;31.58;;;3.00;99.90;;;;;;6266331;22;20125;-83
2021/10/27 05:04:44;;;;;;;55.58;30.35;;;2.90;99.90;;;;;;6284198;22;20068;-85
2021/10/27 05:07:31;;;;;;;56.38;30.98;;;2.90;99.90;;;;;;6283567;22;20106;-84
2021/10/27 05:10:18;;;;;;;60.75;32.70;;;2.80;99.90;;;;;;6290067;22;20280;-84
2021/10/27 05:13:09;;;;;;;59.55;31.98;;;2.80;99.90;;;;;;6296045;22;20027;-83
2021/10/27 05:15:57;;;;;;;61.25;33.20;;;2.80;99.90;;;;;;6294091;22;20038;-83
2021/10/27 05:18:48;;;;;;;78.25;36.22;;;2.70;99.90;;;;;;6294775;22;20038;-83
2021/10/27 05:21:38;;;;;;;73.78;35.67;;;2.80;99.90;;;;;;6278721;22;20080;-83
2021/10/27 05:24:26;;;;;;;67.75;33.55;;;2.80;99.90;;;;;;6299162;22;20023;-84
2021/10/27 05:27:16;;;;;;;74.47;35.95;;;2.80;99.90;;;;;;6316577;22;20089;-83
2021/10/27 05:30:08;;;;;;;77.93;36.88;;;2.80;99.90;;;;;;6279828;22;20026;-83
2021/10/27 05:32:57;;;;;;;75.88;36.83;;;2.90;99.90;;;;;;6274745;22;20128;-83
2021/10/27 05:35:44;;;;;;;84.65;39.75;;;2.80;99.90;;;;;;6274604;22;20050;-84
2021/10/27 05:38:32;;;;;;;91.82;43.17;;;2.80;99.90;;;;;;6254385;22;20032;-84
2021/10/27 05:41:21;;;;;;;85.13;39.90;;;2.80;99.90;;;;;;6230206;22;20031;-83
2021/10/27 05:44:11;;;;;;;86.82;38.28;;;2.80;99.90;;;;;;6233586;22;20027;-84
2021/10/27 05:46:59;;;;;;;87.95;36.50;;;2.80;99.90;;;;;;6273779;22;20028;-83
2021/10/27 05:49:55;;;;;;;90.15;36.55;;;2.70;99.90;;;;;;6251923;22;20075;-83
2021/10/27 05:55:53;;;;;;;105.70;38.83;;;2.80;99.90;;;;;;6274593;22;20361;-84
2021/10/27 05:58:41;;;;;;;89.45;37.08;;;2.90;99.90;;;;;;6274568;22;20073;-83
2021/10/27 06:01:36;;;;;;;87.95;35.22;;;3.00;99.90;;;;;;6274037;22;20042;-83
2021/10/27 06:04:23;;;;;;;80.97;35.25;;;3.00;99.90;;;;;;6251121;22;20032;-83
2021/10/27 06:07:12;;;;;;;94.85;37.65;;;3.00;99.90;;;;;;6271999;22;20047;-83
2021/10/27 06:10:00;;;;;;;139.40;46.30;;;3.10;99.90;;;;;;6233546;22;20020;-85
2021/10/27 06:12:54;;;;;;;336.77;56.28;;;3.00;99.90;;;;;;6274048;22;20028;-85
2021/10/27 06:15:44;;;;;;;121.35;44.55;;;3.00;99.90;;;;;;6254280;22;20042;-85
2021/10/27 06:18:31;;;;;;;99.50;40.95;;;2.90;99.90;;;;;;6253172;22;20367;-84
2021/10/27 06:21:23;;;;;;;89.88;37.47;;;2.90;99.90;;;;;;6275746;22;20031;-85
2021/10/27 06:24:15;;;;;;;91.47;38.22;;;3.00;99.90;;;;;;6278522;22;20027;-85
2021/10/27 06:27:04;;;;;;;77.20;35.22;;;3.00;99.90;;;;;;6277278;22;20024;-85
2021/10/27 06:30:14;;;;;;;77.22;35.63;;;3.10;99.90;;;;;;6286135;22;20314;-85
2021/10/27 06:33:21;;;;;;;82.40;37.78;;;3.20;99.90;;;;;;6291720;22;20077;-86
2021/10/27 06:36:15;;;;;;;106.55;41.03;;;3.30;99.90;;;;;;6287115;22;20045;-85
2021/10/27 06:39:25;;;;;;;94.85;39.28;;;3.40;99.90;;;;;;6286629;22;20425;-85
2021/10/27 06:48:29;;;;;;;84.30;39.63;;;3.60;99.90;;;;;;6306681;22;20035;-85
2021/10/27 06:51:29;;;;;;;62.17;32.90;;;3.80;99.90;;;;;;6270444;22;20047;-85
2021/10/27 06:54:21;;;;;;;84.85;38.08;;;4.10;99.90;;;;;;6307265;22;20031;-85
2021/10/27 06:57:10;;;;;;;79.78;38.85;;;4.30;99.90;;;;;;6286016;22;20027;-85
2021/10/27 07:00:11;;;;;;;72.97;35.47;;;4.60;99.90;;;;;;6308968;22;20023;-85
2021/10/27 07:17:47;;;;;;;43.78;26.10;;;5.00;99.90;;;;;;6291729;22;20054;-85
2021/10/27 07:20:37;;;;;;;43.17;26.23;;;5.10;99.90;;;;;;6289296;22;20027;-85
2021/10/27 07:23:27;;;;;;;43.70;25.27;;;5.20;99.90;;;;;;6290729;22;20330;-86
2021/10/27 07:26:17;;;;;;;34.08;22.67;;;5.50;99.90;;;;;;6279035;22;20054;-85
2021/10/27 07:29:05;;;;;;;39.40;23.85;;;5.60;99.90;;;;;;6304285;22;20031;-85
2021/10/27 07:31:52;;;;;;;38.58;23.33;;;5.70;99.90;;;;;;6289946;22;20043;-85
2021/10/27 07:34:46;;;;;;;31.02;20.77;;;5.80;99.90;;;;;;6288778;22;20023;-84
2021/10/27 07:40:42;;;;;;;26.70;18.90;;;5.90;99.90;;;;;;6296961;22;20015;-85
2021/10/27 07:43:32;;;;;;;25.92;19.20;;;6.00;99.90;;;;;;6297959;22;20008;-85
2021/10/27 07:46:20;;;;;;;28.95;19.90;;;6.10;99.90;;;;;;6258713;22;20094;-85
2021/10/27 07:49:08;;;;;;;26.60;19.58;;;6.30;99.90;;;;;;6297384;22;20031;-85
2021/10/27 07:51:56;;;;;;;27.17;19.92;;;6.60;99.90;;;;;;6254606;22;20028;-85
2021/10/27 07:54:45;;;;;;;29.58;20.48;;;6.80;99.90;;;;;;6275095;22;20011;-86
2021/10/27 07:57:33;;;;;;;28.02;19.95;;;6.90;99.90;;;;;;6249957;22;20030;-85
2021/10/27 08:00:20;;;;;;;25.08;18.98;;;7.00;99.90;;;;;;6295371;22;20394;-85
2021/10/27 08:03:08;;;;;;;22.95;17.95;;;7.20;99.90;;;;;;6245188;22;20038;-86
2021/10/27 08:06:07;;;;;;;24.83;17.27;;;7.50;99.90;;;;;;6268041;22;20081;-86
2021/10/27 08:08:57;;;;;;;25.58;17.35;;;7.70;99.90;;;;;;6285389;22;20027;-87
2021/10/27 08:11:45;;;;;;;24.00;17.83;;;7.70;99.90;;;;;;6244316;22;20590;-86
2021/10/27 08:14:33;;;;;;;23.33;17.13;;;7.70;99.90;;;;;;6266419;22;20028;-86
2021/10/27 08:17:40;;;;;;;22.35;15.88;;;7.80;99.90;;;;;;6250643;22;20019;-87
2021/10/27 08:20:29;;;;;;;19.33;15.43;;;7.80;99.90;;;;;;6285864;22;20086;-87
2021/10/27 08:23:19;;;;;;;19.45;14.98;;;8.00;99.90;;;;;;6279955;22;20034;-87
2021/10/27 08:26:14;;;;;;;23.10;15.63;;;8.20;99.90;;;;;;6254502;22;20027;-86
2021/10/27 08:29:11;;;;;;;21.85;14.55;;;8.40;99.90;;;;;;6292567;22;20057;-86
2021/10/27 08:32:06;;;;;;;18.55;13.90;;;8.60;99.90;;;;;;6281202;22;20027;-87
2021/10/27 08:34:54;;;;;;;19.40;13.45;;;8.80;99.90;;;;;;6280785;22;20050;-86
2021/10/27 08:37:50;;;;;;;18.83;12.13;;;9.10;99.90;;;;;;6260054;22;20024;-86
2021/10/27 08:40:41;;;;;;;13.35;10.55;;;9.60;99.90;;;;;;6280160;22;20385;-85
2021/10/27 08:43:29;;;;;;;14.23;10.40;;;10.20;99.90;;;;;;6304350;22;20027;-88
2021/10/27 08:46:18;;;;;;;11.05;7.80;;;10.70;99.90;;;;;;6302706;22;20023;-88
2021/10/27 08:49:09;;;;;;;10.88;7.72;;;11.10;99.90;;;;;;6303178;22;20422;-87
2021/10/27 08:51:59;;;;;;;10.25;7.38;;;11.30;99.90;;;;;;6302570;22;20031;-87
2021/10/27 08:54:46;;;;;;;10.75;7.68;;;11.60;99.90;;;;;;6301877;22;20030;-87
2021/10/27 08:57:36;;;;;;;8.98;7.00;;;11.90;99.90;;;;;;6302877;22;20023;-87
2021/10/27 09:00:39;;;;;;;9.60;6.85;;;12.10;99.90;;;;;;6304297;22;20100;-87
2021/10/27 09:41:08;;;;;;;9.63;4.45;;;22.40;66.40;;;;;;6307301;22;20031;-87
2021/10/27 09:44:26;;;;;;;6.10;4.32;;;22.20;66.80;;;;;;6317509;22;20131;-88
2021/10/27 10:06:39;;;;;;;8.65;5.03;;;22.80;60.50;;;;;;6304116;22;20011;-85
2021/10/27 10:09:32;;;;;;;7.47;4.30;;;23.20;57.50;;;;;;6306745;22;20406;-86
2021/10/27 10:12:22;;;;;;;7.50;4.72;;;23.40;58.10;;;;;;6305762;22;20027;-85
2021/10/27 10:15:13;;;;;;;7.13;4.10;;;23.40;57.30;;;;;;6281009;22;20023;-85
2021/10/27 10:18:00;;;;;;;8.40;4.32;;;23.50;56.70;;;;;;6305097;22;20031;-86
2021/10/27 10:20:57;;;;;;;4.72;3.78;;;23.90;56.50;;;;;;6306211;22;20058;-86
2021/10/27 10:23:44;;;;;;;6.65;4.07;;;23.90;54.90;;;;;;6262677;22;20042;-86
2021/10/27 10:26:34;;;;;;;8.18;3.83;;;23.70;56.20;;;;;;6281265;22;20153;-85
2021/10/27 10:32:31;;;;;;;;;;;22.90;57.10;;;;;;6271914;22;20051;-87
2021/10/27 10:35:28;;;;;;;4.82;3.20;;;23.50;57.50;;;;;;6274048;22;19919;-85
2021/10/27 10:57:56;;;;;;;5.90;3.47;;;23.20;54.40;;;;;;6277604;22;20023;-85
2021/10/27 11:01:06;;;;;;;6.47;3.67;;;23.30;55.10;;;;;;6289821;22;20074;-86
2021/10/27 11:23:50;;;;;;;3.40;1.90;;;24.50;49.70;;;;;;6232432;22;20027;-85
2021/10/27 11:39:08;;;;;;;5.60;2.45;;;25.00;49.30;;;;;;6306526;22;20007;-84
2021/10/27 11:42:07;;;;;;;2.17;1.83;;;25.60;46.40;;;;;;6294401;22;20015;-85
2021/10/27 11:45:05;;;;;;;3.00;1.60;;;24.80;46.60;;;;;;6328911;22;20019;-85
2021/10/27 11:47:57;;;;;;;2.13;1.67;;;24.30;47.70;;;;;;6296666;22;20030;-85
2021/10/27 11:50:44;;;;;;;3.05;1.73;;;24.60;48.40;;;;;;6316445;22;20038;-84
2021/10/27 11:53:49;;;;;;;3.13;1.88;;;25.30;48.20;;;;;;6315681;22;20268;-88
2021/10/27 11:56:44;;;;;;;4.43;1.60;;;25.70;47.00;;;;;;6309450;22;20027;-87
2021/10/27 11:59:45;;;;;;;2.42;1.50;;;25.70;46.60;;;;;;6309569;22;20038;-87
2021/10/27 12:02:57;;;;;;;3.28;2.03;;;25.70;45.50;;;;;;6286284;22;20031;-87
2021/10/27 12:14:37;;;;;;;4.63;1.83;;;27.20;43.30;;;;;;6307231;22;20097;-87
2021/10/27 12:17:31;;;;;;;4.85;1.33;;;26.90;43.40;;;;;;6285915;22;20027;-85
2021/10/27 12:20:33;;;;;;;4.35;1.80;;;27.80;41.60;;;;;;6285453;22;20054;-89
2021/10/27 12:23:26;;;;;;;3.25;1.63;;;28.50;39.00;;;;;;6306275;22;20027;-88
2021/10/27 12:26:16;;;;;;;3.58;1.58;;;28.40;41.00;;;;;;6283079;22;20073;-87
2021/10/27 12:29:12;;;;;;;2.72;1.38;;;28.50;39.40;;;;;;6282351;22;20026;-88
2021/10/27 12:32:14;;;;;;;4.22;1.98;;;28.70;38.20;;;;;;6283082;22;20028;-89
2021/10/27 12:35:12;;;;;;;3.55;1.30;;;27.90;39.70;;;;;;6305370;22;20080;-88
2021/10/27 12:41:22;;;;;;;1.38;0.80;;;27.40;39.90;;;;;;6305638;22;20108;-89
2021/10/27 12:44:49;;;;;;;3.70;1.48;;;27.00;39.90;;;;;;6286322;22;20035;-88
2021/10/27 12:47:40;;;;;;;5.78;1.65;;;25.90;43.10;;;;;;6268343;22;20027;-88
2021/10/27 12:50:48;;;;;;;2.70;1.17;;;25.80;43.70;;;;;;6306837;22;20134;-89
2021/10/27 12:53:42;;;;;;;1.90;1.10;;;26.20;43.30;;;;;;6268791;22;20102;-88
2021/10/27 12:56:33;;;;;;;1.88;1.05;;;26.80;41.90;;;;;;6305405;22;20100;-86
2021/10/27 12:59:31;;;;;;;3.15;1.20;;;26.60;40.50;;;;;;6284341;22;20034;-84
2021/10/27 13:02:26;;;;;;;1.80;1.17;;;26.80;41.10;;;;;;6287590;22;20023;-85
2021/10/27 13:05:34;;;;;;;2.63;1.38;;;25.90;42.40;;;;;;6286005;22;20038;-85
2021/10/27 13:08:47;;;;;;;2.75;1.85;;;25.40;44.10;;;;;;6274937;22;20074;-86
2021/10/27 13:11:46;;;;;;;3.28;1.27;;;25.20;44.40;;;;;;6289624;22;20065;-86
2021/10/27 13:29:26;;;;;;;2.38;1.42;;;25.60;44.20;;;;;;6282347;22;20101;-85
2021/10/27 13:30:24;;;;;;;3.80;1.90;;;26.10;42.50;;;;;;6307123;22;20023;-83
2021/10/27 13:33:15;;;;;;;3.40;2.05;;;26.20;42.90;;;;;;6277576;22;20038;-85
2021/10/27 13:36:03;;;;;;;2.22;1.30;;;27.10;41.80;;;;;;6314554;22;20027;-87
2021/10/27 13:38:59;;;;;;;3.42;1.75;;;27.10;41.40;;;;;;6316247;22;20058;-87
2021/10/27 13:41:59;;;;;;;2.28;1.40;;;26.40;42.70;;;;;;6292918;22;20108;-87
2021/10/27 13:45:03;;;;;;;3.33;1.60;;;25.60;44.40;;;;;;6288668;22;20037;-85
2021/10/27 13:48:07;;;;;;;2.60;1.40;;;25.60;44.00;;;;;;6265613;22;20030;-88
2021/10/27 14:09:43;;;;;;;4.22;1.50;;;24.10;44.40;;;;;;6305726;22;20042;-85
2021/10/27 14:12:49;;;;;;;5.15;1.40;;;24.90;43.80;;;;;;6300356;22;20019;-87
2021/10/27 14:19:46;;;;;;;2.70;1.40;;;24.90;42.50;;;;;;6214837;22;20034;-86
2021/10/27 14:22:40;;;;;;;3.60;1.40;;;24.70;43.10;;;;;;6291021;22;20031;-86
2021/10/27 15:22:45;;;;;;;7.60;3.28;;;18.60;61.80;;;;;;6309071;22;20042;-86
2021/10/27 15:53:11;;;;;;;10.32;5.00;;;14.80;82.40;;;;;;6308972;22;20023;-86
2021/10/27 15:55:59;;;;;;;9.95;5.20;;;14.30;86.70;;;;;;6307227;22;20476;-85
2021/10/27 15:58:47;;;;;;;11.05;5.72;;;13.90;90.90;;;;;;6307255;22;20112;-86
2021/10/27 16:01:42;;;;;;;10.88;5.93;;;13.60;94.20;;;;;;6306909;22;20059;-87
2021/10/27 16:04:36;;;;;;;8.85;5.38;;;13.30;98.80;;;;;;6262759;22;20019;-87
2021/10/27 16:07:30;;;;;;;9.18;5.63;;;13.00;99.90;;;;;;6306010;22;20030;-86
2021/10/27 16:10:19;;;;;;;10.82;4.93;;;12.80;99.90;;;;;;6308698;22;20093;-86
2021/10/27 16:13:16;;;;;;;9.18;5.07;;;12.60;99.90;;;;;;6305290;22;20019;-86
2021/10/27 16:16:07;;;;;;;8.95;4.95;;;12.30;99.90;;;;;;6307892;22;20019;-86
2021/10/27 16:18:54;;;;;;;8.02;4.65;;;12.00;99.90;;;;;;6265854;22;20057;-86
2021/10/27 16:21:42;;;;;;;7.82;4.78;;;11.70;99.90;;;;;;6287172;22;20053;-85
2021/10/27 16:24:34;;;;;;;11.63;5.03;;;11.40;99.90;;;;;;6305946;22;20420;-85
2021/10/27 16:27:23;;;;;;;10.70;4.90;;;11.20;99.90;;;;;;6275146;22;20027;-86
2021/10/27 16:30:11;;;;;;;10.45;5.18;;;11.00;99.90;;;;;;6282161;22;20027;-86
2021/10/27 16:33:04;;;;;;;9.18;4.78;;;10.90;99.90;;;;;;6308871;22;20023;-85
2021/10/27 16:35:58;;;;;;;11.45;4.82;;;10.70;99.90;;;;;;6316966;22;20030;-84
2021/10/27 16:38:47;;;;;;;10.93;5.38;;;10.60;99.90;;;;;;6319741;22;20023;-85
2021/10/27 16:41:39;;;;;;;11.70;5.68;;;10.40;99.90;;;;;;6288552;22;20442;-84
2021/10/27 16:44:27;;;;;;;10.23;5.32;;;10.30;99.90;;;;;;6305698;22;20031;-85
2021/10/27 16:47:17;;;;;;;13.18;5.78;;;10.30;99.90;;;;;;6305451;22;20368;-85
2021/10/27 16:50:09;;;;;;;15.15;5.60;;;10.20;99.90;;;;;;6304451;22;20031;-85
2021/10/27 16:52:58;;;;;;;10.37;6.27;;;10.20;99.90;;;;;;6307284;22;20311;-86
2021/10/27 16:55:47;;;;;;;8.13;5.63;;;10.10;99.90;;;;;;6286809;22;20030;-86
2021/10/27 16:58:34;;;;;;;10.45;6.13;;;10.00;99.90;;;;;;6284288;22;20341;-86
2021/10/27 17:01:23;;;;;;;12.93;6.80;;;9.90;99.90;;;;;;6311404;22;20023;-84
2021/10/27 17:04:13;;;;;;;13.10;7.05;;;9.70;99.90;;;;;;6306636;22;20028;-86
2021/10/27 17:07:05;;;;;;;12.23;7.05;;;9.60;99.90;;;;;;6286257;22;20023;-85
2021/10/27 17:09:55;;;;;;;13.98;7.70;;;9.50;99.90;;;;;;6271179;22;20019;-85
2021/10/27 17:12:46;;;;;;;17.58;7.30;;;9.40;99.90;;;;;;6304422;22;20110;-85
2021/10/27 17:15:34;;;;;;;11.50;7.30;;;9.30;99.90;;;;;;6282828;22;20551;-83
2021/10/27 17:18:31;;;;;;;14.00;7.65;;;9.20;99.90;;;;;;6297167;22;20043;-83
2021/10/27 17:21:18;;;;;;;15.13;7.43;;;9.20;99.90;;;;;;6268206;22;20099;-84
2021/10/27 17:24:13;;;;;;;9.98;6.85;;;9.10;99.90;;;;;;6298342;22;20023;-84
2021/10/27 17:27:04;;;;;;;15.05;8.07;;;9.00;99.90;;;;;;6296514;22;20023;-83
2021/10/27 17:29:53;;;;;;;16.55;9.27;;;8.90;99.90;;;;;;6281881;22;20034;-84
2021/10/27 17:32:43;;;;;;;19.20;9.18;;;8.80;99.90;;;;;;6306543;22;20096;-84
2021/10/27 17:35:32;;;;;;;16.08;10.63;;;8.70;99.90;;;;;;6284940;22;20037;-85
2021/10/27 17:38:20;;;;;;;21.45;12.07;;;8.60;99.90;;;;;;6262275;22;20023;-85
2021/10/27 17:41:15;;;;;;;21.67;11.07;;;8.50;99.90;;;;;;6301830;22;20023;-84
2021/10/27 17:44:07;;;;;;;25.83;11.75;;;8.40;99.90;;;;;;6283739;22;20023;-84
2021/10/27 17:47:02;;;;;;;23.23;10.90;;;8.30;99.90;;;;;;6304151;22;20104;-85
2021/10/27 17:50:08;;;;;;;21.38;10.50;;;8.20;99.90;;;;;;6306099;22;20034;-84
2021/10/27 17:58:57;;;;;;;21.20;10.88;;;8.00;99.90;;;;;;6304358;22;20035;-84
2021/10/27 18:01:50;;;;;;;20.42;12.10;;;7.90;99.90;;;;;;6283824;22;20100;-84
2021/10/27 18:04:38;;;;;;;22.17;11.57;;;7.90;99.90;;;;;;6282381;22;20023;-84
2021/10/27 18:07:27;;;;;;;23.35;13.13;;;7.80;99.90;;;;;;6298220;22;20051;-85
2021/10/27 18:10:22;;;;;;;18.75;13.20;;;7.70;99.90;;;;;;6308513;22;20023;-85
2021/10/27 18:13:16;;;;;;;25.13;14.60;;;7.70;99.90;;;;;;6287679;22;20399;-84
2021/10/27 18:21:58;;;;;;;22.00;14.02;;;7.60;99.90;;;;;;6307746;22;20041;-84
2021/10/27 18:38:24;;;;;;;21.70;12.45;;;7.40;99.90;;;;;;6316547;22;20031;-86
2021/10/27 18:44:01;;;;;;;23.50;13.43;;;7.20;99.90;;;;;;6283921;22;20031;-85
2021/10/27 18:46:53;;;;;;;20.90;12.95;;;7.20;99.90;;;;;;6263494;22;20081;-87
2021/10/27 18:49:41;;;;;;;25.23;13.55;;;7.20;99.90;;;;;;6309680;22;20096;-86
2021/10/27 18:52:55;;;;;;;23.38;14.80;;;7.20;99.90;;;;;;6312289;22;20023;-85
2021/10/27 18:58:34;;;;;;;22.55;14.00;;;7.10;99.90;;;;;;6308781;22;20055;-86
2021/10/27 19:01:29;;;;;;;22.83;13.50;;;7.00;99.90;;;;;;6305942;22;20077;-86
2021/10/27 19:24:43;;;;;;;30.55;14.90;;;6.90;99.90;;;;;;6077238;23;20021;-86
2021/10/27 19:27:37;;;;;;;24.67;15.20;;;6.80;99.90;;;;;;6152777;22;20086;-86
2021/10/27 20:04:33;;;;;;;29.25;17.48;;;6.60;99.90;;;;;;6307834;22;20031;-85
2021/10/27 20:13:54;;;;;;;42.65;27.33;;;6.30;99.90;;;;;;6309125;22;20312;-85
2021/10/27 20:17:02;;;;;;;42.40;24.50;;;6.20;99.90;;;;;;6251112;22;20110;-85
2021/10/27 20:20:30;;;;;;;42.92;26.00;;;6.20;99.90;;;;;;6307238;22;20023;-85
2021/10/27 20:24:03;;;;;;;43.78;26.63;;;6.10;99.90;;;;;;6285920;22;20426;-86
2021/10/27 20:51:28;;;;;;;49.08;29.17;;;5.80;99.90;;;;;;6305002;22;20034;-86
2021/10/27 20:54:15;;;;;;;50.03;30.23;;;5.70;99.90;;;;;;6285394;22;20023;-86
2021/10/27 20:57:09;;;;;;;54.03;31.35;;;5.70;99.90;;;;;;6305547;22;20088;-84
2021/10/27 21:02:56;;;;;;;57.67;32.80;;;5.60;99.90;;;;;;6304604;22;20082;-85
2021/10/27 21:15:08;;;;;;;62.53;35.70;;;5.50;99.90;;;;;;6272469;22;20422;-85
2021/10/27 21:17:57;;;;;;;58.90;35.92;;;5.50;99.90;;;;;;6307392;22;20091;-84
2021/10/27 21:20:47;;;;;;;63.55;36.70;;;5.40;99.90;;;;;;6308031;22;20049;-85
2021/10/27 21:23:34;;;;;;;62.53;35.53;;;5.40;99.90;;;;;;6305467;22;20050;-84
2021/10/27 21:26:24;;;;;;;71.60;36.35;;;5.40;99.90;;;;;;6304513;22;20434;-85